Time;durP1;ratioP1;P1;durP2;ratioP2;P2;SDS_P1;SDS_P2;PMS_P1;PMS_P2;Temp;Humidity;BMP_temperature;BMP_pressure;BME280_temperature;BME280_humidity;BME280_pressure;Samples;Min_cycle;Max_cycle;Signal;HPM_P1;HPM_P2
2023/03/02 00:01:07;;;;;;;22.38;15.60;;;3.70;99.90;;;;;;5018640;28;20068;-55
2023/03/02 00:03:36;;;;;;;31.55;20.80;;;3.70;99.90;;;;;;5011775;28;20045;-55
2023/03/02 00:06:02;;;;;;;28.63;20.70;;;3.60;99.90;;;;;;5011940;28;20124;-57
2023/03/02 00:08:32;;;;;;;30.25;19.67;;;3.60;99.90;;;;;;5027141;28;20615;-55
2023/03/02 00:10:59;;;;;;;36.42;22.77;;;3.60;99.90;;;;;;5010225;28;20053;-55
2023/03/02 00:13:25;;;;;;;35.17;24.27;;;3.70;99.90;;;;;;5022253;28;20044;-56
2023/03/02 00:15:51;;;;;;;39.60;26.42;;;3.70;99.90;;;;;;5013718;28;20041;-56
2023/03/02 00:18:17;;;;;;;50.60;29.58;;;3.60;99.90;;;;;;4999016;28;20060;-53
2023/03/02 00:20:42;;;;;;;42.20;27.48;;;3.70;99.90;;;;;;5004285;28;20080;-55
2023/03/02 00:23:08;;;;;;;38.88;24.85;;;3.60;99.90;;;;;;5018289;28;20057;-54
2023/03/02 00:25:35;;;;;;;43.30;27.90;;;3.70;99.90;;;;;;4984936;28;20064;-54
2023/03/02 00:28:00;;;;;;;44.03;28.50;;;3.70;99.90;;;;;;5016340;28;20404;-55
2023/03/02 00:30:26;;;;;;;47.17;30.45;;;3.60;99.90;;;;;;5018544;28;20045;-52
2023/03/02 00:32:52;;;;;;;46.30;31.30;;;3.60;99.90;;;;;;5007405;28;20602;-53
2023/03/02 00:35:17;;;;;;;50.10;31.65;;;3.60;99.90;;;;;;5015589;28;20163;-55
2023/03/02 00:37:43;;;;;;;52.72;32.38;;;3.50;99.90;;;;;;5034673;28;20053;-55
2023/03/02 00:40:10;;;;;;;48.97;30.38;;;3.50;99.90;;;;;;5002726;28;20202;-53
2023/03/02 00:42:36;;;;;;;51.10;32.50;;;3.50;99.90;;;;;;5015069;28;20037;-54
2023/03/02 00:45:06;;;;;;;53.50;32.30;;;3.40;99.90;;;;;;5013962;28;20076;-57
2023/03/02 00:47:35;;;;;;;55.53;32.55;;;3.40;99.90;;;;;;5008332;28;20374;-53
2023/03/02 00:50:02;;;;;;;53.28;33.15;;;3.40;99.90;;;;;;5028786;28;20083;-53
2023/03/02 00:52:32;;;;;;;50.55;33.00;;;3.40;99.90;;;;;;5053678;22;20430;-61
2023/03/02 00:54:58;;;;;;;52.25;32.10;;;3.40;99.90;;;;;;5008459;28;20661;-60
2023/03/02 00:57:24;;;;;;;49.50;31.92;;;3.40;99.90;;;;;;5020868;28;20072;-60
2023/03/02 00:59:49;;;;;;;44.33;28.92;;;3.40;99.90;;;;;;5011434;28;20029;-60
2023/03/02 01:02:15;;;;;;;45.38;28.33;;;3.40;99.90;;;;;;5020806;28;20045;-62
2023/03/02 01:04:43;;;;;;;46.08;30.23;;;3.40;99.90;;;;;;5035624;28;20174;-61
2023/03/02 01:07:19;;;;;;;45.63;29.15;;;3.40;99.90;;;;;;5030523;28;20079;-61
2023/03/02 01:09:47;;;;;;;44.17;28.13;;;3.40;99.90;;;;;;5025407;28;20049;-62
2023/03/02 01:12:13;;;;;;;35.97;22.80;;;3.50;99.90;;;;;;5030324;28;20115;-61
2023/03/02 01:14:42;;;;;;;36.15;22.02;;;3.40;99.90;;;;;;5033548;28;20037;-60
2023/03/02 01:17:09;;;;;;;32.78;22.75;;;3.50;99.90;;;;;;5009345;28;20037;-60
2023/03/02 01:19:35;;;;;;;32.08;21.88;;;3.50;99.90;;;;;;5009100;28;20037;-61
2023/03/02 01:22:02;;;;;;;37.53;23.20;;;3.50;99.90;;;;;;5030255;28;20041;-61
2023/03/02 01:24:28;;;;;;;35.25;22.40;;;3.50;99.90;;;;;;5028087;28;20103;-62
2023/03/02 01:26:53;;;;;;;40.88;25.52;;;3.50;99.90;;;;;;5016386;28;20049;-62
2023/03/02 01:29:19;;;;;;;40.25;26.58;;;3.50;99.90;;;;;;5031475;28;20072;-61
2023/03/02 01:31:48;;;;;;;41.00;28.20;;;3.50;99.90;;;;;;5007613;28;20041;-61
2023/03/02 01:34:14;;;;;;;41.67;28.60;;;3.50;99.90;;;;;;5013300;28;20045;-61
2023/03/02 01:36:40;;;;;;;51.10;32.20;;;3.40;99.90;;;;;;5015483;28;20077;-60
2023/03/02 01:39:06;;;;;;;40.22;27.17;;;3.40;99.90;;;;;;5022737;28;20050;-61
2023/03/02 01:41:31;;;;;;;46.13;29.75;;;3.30;99.90;;;;;;5029049;28;20041;-61
2023/03/02 01:43:57;;;;;;;40.30;26.95;;;3.30;99.90;;;;;;5022204;28;20045;-61
2023/03/02 01:46:26;;;;;;;46.60;27.70;;;3.30;99.90;;;;;;5024258;28;20377;-62
2023/03/02 01:48:57;;;;;;;42.47;27.05;;;3.30;99.90;;;;;;5016788;28;20128;-59
2023/03/02 01:51:25;;;;;;;42.67;25.33;;;3.20;99.90;;;;;;5005183;28;20347;-59
2023/03/02 01:53:55;;;;;;;36.45;21.77;;;3.30;99.90;;;;;;5018169;28;20131;-61
2023/03/02 01:56:25;;;;;;;33.40;19.65;;;3.30;99.90;;;;;;4998788;28;20127;-60
2023/03/02 01:59:00;;;;;;;37.70;23.20;;;3.30;99.90;;;;;;5014004;28;20076;-60
2023/03/02 02:01:29;;;;;;;42.03;24.48;;;3.30;99.90;;;;;;5019277;28;20072;-62
2023/03/02 02:03:55;;;;;;;39.92;22.70;;;3.20;99.90;;;;;;5005596;28;20484;-61
2023/03/02 02:06:43;;;;;;;38.05;23.48;;;3.30;99.90;;;;;;5003283;28;20046;-59
2023/03/02 02:09:15;;;;;;;32.53;21.20;;;3.20;99.90;;;;;;5005758;28;20508;-61
2023/03/02 02:11:44;;;;;;;43.05;24.77;;;3.30;99.90;;;;;;4996161;28;20037;-61
2023/03/02 02:14:11;;;;;;;44.97;22.90;;;3.30;99.90;;;;;;5013734;28;20049;-61
2023/03/02 02:16:37;;;;;;;40.33;22.40;;;3.30;99.90;;;;;;5019121;28;20049;-62
2023/03/02 02:19:25;;;;;;;45.90;25.60;;;3.20;99.90;;;;;;5016463;28;20037;-62
2023/03/02 02:21:51;;;;;;;43.45;23.88;;;3.30;99.90;;;;;;5016676;28;20041;-61
2023/03/02 02:24:39;;;;;;;50.85;25.67;;;3.20;99.90;;;;;;5026521;28;20522;-60
2023/03/02 02:27:05;;;;;;;46.25;26.23;;;3.30;99.90;;;;;;5005552;28;20278;-61
2023/03/02 02:29:34;;;;;;;52.83;28.45;;;3.30;99.90;;;;;;5008972;28;20041;-61
2023/03/02 02:32:14;;;;;;;49.78;27.00;;;3.20;99.90;;;;;;5019888;28;20068;-61
2023/03/02 02:34:54;;;;;;;49.65;26.30;;;3.20;99.90;;;;;;5009154;28;20369;-60
2023/03/02 02:37:31;;;;;;;47.63;25.83;;;3.20;99.90;;;;;;5008261;28;20121;-62
2023/03/02 02:39:58;;;;;;;49.58;25.75;;;3.20;99.90;;;;;;5020946;28;20495;-62
2023/03/02 02:42:29;;;;;;;43.75;25.30;;;3.20;99.90;;;;;;5026615;28;20049;-61
2023/03/02 02:44:57;;;;;;;42.08;23.40;;;3.10;99.90;;;;;;5026509;28;20056;-61
2023/03/02 02:47:24;;;;;;;45.75;25.90;;;3.10;99.90;;;;;;5022870;28;20048;-60
2023/03/02 02:49:53;;;;;;;39.97;23.27;;;3.20;99.90;;;;;;5028540;28;20048;-59
2023/03/02 02:52:21;;;;;;;42.08;23.15;;;3.10;99.90;;;;;;5019099;28;20033;-61
2023/03/02 02:54:50;;;;;;;37.72;21.27;;;3.00;99.90;;;;;;5025279;28;20046;-60
2023/03/02 02:57:17;;;;;;;36.67;21.83;;;3.00;99.90;;;;;;5021188;28;20048;-62
2023/03/02 02:59:56;;;;;;;35.83;21.08;;;3.00;99.90;;;;;;5021536;28;20075;-61
2023/03/02 03:02:26;;;;;;;35.17;21.35;;;3.00;99.90;;;;;;5014899;28;20488;-60
2023/03/02 03:05:01;;;;;;;33.80;20.75;;;3.00;99.90;;;;;;5010042;28;20044;-62
2023/03/02 03:07:28;;;;;;;32.75;19.80;;;2.90;99.90;;;;;;5019894;28;20041;-61
2023/03/02 03:10:07;;;;;;;31.15;19.80;;;2.90;99.90;;;;;;5019924;28;20474;-60
2023/03/02 03:12:33;;;;;;;29.98;19.52;;;2.80;99.90;;;;;;5019689;28;20041;-60
2023/03/02 03:15:01;;;;;;;30.75;19.25;;;2.80;99.90;;;;;;5018918;28;20519;-59
2023/03/02 03:17:27;;;;;;;32.08;18.65;;;2.70;99.90;;;;;;5023098;28;20061;-60
2023/03/02 03:19:53;;;;;;;36.22;20.65;;;2.70;99.90;;;;;;5021810;28;20045;-62
2023/03/02 03:22:19;;;;;;;34.63;19.60;;;2.70;99.90;;;;;;5003205;28;20036;-60
2023/03/02 03:24:45;;;;;;;36.28;21.13;;;2.70;99.90;;;;;;5020692;28;20597;-59
2023/03/02 03:27:14;;;;;;;28.65;17.90;;;2.70;99.90;;;;;;5020814;28;20132;-62
2023/03/02 03:29:44;;;;;;;36.15;20.83;;;2.70;99.90;;;;;;5023907;28;20055;-60
2023/03/02 03:32:09;;;;;;;34.85;20.02;;;2.70;99.90;;;;;;5026642;28;20119;-60
2023/03/02 03:34:39;;;;;;;37.38;21.73;;;2.70;99.90;;;;;;5016369;28;20065;-61
2023/03/02 03:37:09;;;;;;;44.97;23.27;;;2.70;99.90;;;;;;5030678;28;20041;-59
2023/03/02 03:39:35;;;;;;;50.15;23.30;;;2.70;99.90;;;;;;5008275;28;20105;-61
2023/03/02 03:42:01;;;;;;;51.47;25.33;;;2.80;99.90;;;;;;5030344;28;20532;-61
2023/03/02 03:44:27;;;;;;;36.83;22.08;;;2.70;99.90;;;;;;5020881;28;20049;-61
2023/03/02 03:46:53;;;;;;;40.38;22.15;;;2.70;99.90;;;;;;5013638;28;20041;-61
2023/03/02 03:49:18;;;;;;;38.60;20.83;;;2.80;99.90;;;;;;5026827;28;20045;-60
2023/03/02 03:51:44;;;;;;;40.92;23.65;;;2.80;99.90;;;;;;5025849;28;20032;-60
2023/03/02 03:54:11;;;;;;;39.25;22.15;;;2.80;99.90;;;;;;5003191;28;20055;-61
2023/03/02 03:56:40;;;;;;;41.03;23.30;;;2.80;99.90;;;;;;5028616;28;20396;-61
2023/03/02 03:59:08;;;;;;;45.83;24.45;;;2.80;99.90;;;;;;5005878;28;20193;-60
2023/03/02 04:01:46;;;;;;;74.97;28.13;;;2.70;99.90;;;;;;5024525;28;20051;-60
2023/03/02 04:04:16;;;;;;;90.80;28.02;;;2.60;99.90;;;;;;5020333;28;21521;-60
2023/03/02 04:06:42;;;;;;;49.83;26.30;;;2.50;99.90;;;;;;5020330;28;20047;-61
2023/03/02 04:09:08;;;;;;;48.47;26.25;;;2.50;99.90;;;;;;5021093;28;20112;-60
2023/03/02 04:11:40;;;;;;;60.85;27.90;;;2.50;99.90;;;;;;5023816;28;20633;-61
2023/03/02 04:14:06;;;;;;;77.60;29.52;;;2.50;99.90;;;;;;5008517;28;20500;-61
2023/03/02 04:16:33;;;;;;;47.85;26.95;;;2.50;99.90;;;;;;5010876;28;20131;-60
2023/03/02 04:19:00;;;;;;;59.45;29.55;;;2.50;99.90;;;;;;5020305;28;20060;-60
2023/03/02 04:21:26;;;;;;;65.10;31.48;;;2.50;99.90;;;;;;5005277;28;20033;-61
2023/03/02 04:23:52;;;;;;;85.45;33.75;;;2.50;99.90;;;;;;5023047;28;20056;-58
2023/03/02 04:26:18;;;;;;;68.75;31.08;;;2.60;99.90;;;;;;5002454;28;20046;-61
2023/03/02 04:28:44;;;;;;;53.92;28.85;;;2.60;99.90;;;;;;5012928;28;20045;-61
2023/03/02 04:31:09;;;;;;;62.42;29.65;;;2.60;99.90;;;;;;5009228;28;20124;-61
2023/03/02 04:33:35;;;;;;;51.85;28.70;;;2.60;99.90;;;;;;5017485;28;20079;-61
2023/03/02 04:36:01;;;;;;;52.90;27.35;;;2.50;99.90;;;;;;5022473;28;20084;-61
2023/03/02 04:38:28;;;;;;;67.57;30.85;;;2.40;99.90;;;;;;5021441;28;20049;-61
2023/03/02 04:40:57;;;;;;;71.18;31.08;;;2.50;99.90;;;;;;5004082;28;20049;-61
2023/03/02 04:43:24;;;;;;;88.28;35.22;;;2.50;99.90;;;;;;5021493;28;20390;-60
2023/03/02 04:45:54;;;;;;;78.50;34.75;;;2.50;99.90;;;;;;5019861;28;20045;-59
2023/03/02 04:48:24;;;;;;;86.40;37.70;;;2.50;99.90;;;;;;5008291;28;20037;-59
2023/03/02 04:50:55;;;;;;;210.15;47.90;;;2.50;99.90;;;;;;5022485;28;20037;-60
2023/03/02 04:53:21;;;;;;;89.82;38.13;;;2.50;99.90;;;;;;5016233;28;20537;-61
2023/03/02 04:55:47;;;;;;;107.53;40.05;;;2.50;99.90;;;;;;5020708;28;20086;-61
2023/03/02 04:58:13;;;;;;;140.20;44.10;;;2.50;99.90;;;;;;5018650;28;20049;-58
2023/03/02 05:00:39;;;;;;;106.90;39.58;;;2.40;99.90;;;;;;5019435;28;20451;-57
2023/03/02 05:03:05;;;;;;;183.57;45.17;;;2.40;99.90;;;;;;4999295;28;20475;-60
2023/03/02 05:05:32;;;;;;;140.10;41.25;;;2.40;99.90;;;;;;5027122;28;20461;-60
2023/03/02 05:07:58;;;;;;;84.47;34.10;;;2.40;99.90;;;;;;5023730;28;20045;-60
2023/03/02 05:10:25;;;;;;;85.20;34.85;;;2.30;99.90;;;;;;5019456;28;20272;-59
2023/03/02 05:13:01;;;;;;;112.90;37.80;;;2.30;99.90;;;;;;5008929;28;22166;-56
2023/03/02 05:15:30;;;;;;;192.10;40.75;;;2.30;99.90;;;;;;5018204;28;20386;-60
2023/03/02 05:17:56;;;;;;;149.80;40.13;;;2.30;99.90;;;;;;5018363;28;20049;-61
2023/03/02 05:20:30;;;;;;;327.10;51.58;;;2.20;99.90;;;;;;5007394;28;20064;-61
2023/03/02 05:23:02;;;;;;;81.47;34.70;;;2.20;99.90;;;;;;5020625;28;20037;-60
2023/03/02 05:25:33;;;;;;;182.38;43.17;;;2.20;99.90;;;;;;5019942;28;20137;-60
2023/03/02 05:28:00;;;;;;;143.18;40.63;;;2.10;99.90;;;;;;5021671;28;20037;-62
2023/03/02 05:30:26;;;;;;;73.18;31.20;;;2.10;99.90;;;;;;5016759;28;20033;-61
2023/03/02 05:32:52;;;;;;;71.00;31.73;;;2.10;99.90;;;;;;5005470;28;20052;-61
2023/03/02 05:35:20;;;;;;;175.57;40.13;;;2.20;99.90;;;;;;5018966;28;20097;-61
2023/03/02 05:37:46;;;;;;;74.30;31.42;;;2.20;99.90;;;;;;5030602;28;20337;-60
2023/03/02 05:40:15;;;;;;;114.70;34.22;;;2.20;99.90;;;;;;5025369;28;20068;-61
2023/03/02 05:42:44;;;;;;;71.45;29.80;;;2.20;99.90;;;;;;5006278;28;20176;-58
2023/03/02 05:45:32;;;;;;;59.35;28.48;;;2.20;99.90;;;;;;5022949;28;20065;-62
2023/03/02 05:47:57;;;;;;;69.55;29.48;;;2.30;99.90;;;;;;5018945;28;20478;-60
2023/03/02 05:50:24;;;;;;;63.60;27.50;;;2.30;99.90;;;;;;5018836;28;20527;-61
2023/03/02 05:52:49;;;;;;;72.30;28.35;;;2.30;99.90;;;;;;5014168;28;20048;-62
2023/03/02 05:55:17;;;;;;;62.20;27.27;;;2.30;99.90;;;;;;4998410;28;20038;-62
2023/03/02 05:57:43;;;;;;;97.28;32.05;;;2.20;99.90;;;;;;5024621;28;20407;-59
2023/03/02 06:00:11;;;;;;;69.57;27.95;;;2.20;99.90;;;;;;5007495;28;20041;-62
2023/03/02 06:02:38;;;;;;;65.15;27.75;;;2.20;99.90;;;;;;4989665;28;20384;-62
2023/03/02 06:05:16;;;;;;;66.07;28.33;;;2.10;99.90;;;;;;5000332;28;20049;-61
2023/03/02 06:07:42;;;;;;;161.30;36.70;;;2.20;99.90;;;;;;5023352;28;20033;-62
2023/03/02 06:10:10;;;;;;;70.60;30.90;;;2.10;99.90;;;;;;5006458;28;20042;-61
2023/03/02 06:12:50;;;;;;;85.75;33.05;;;2.10;99.90;;;;;;5005830;28;20049;-61
2023/03/02 06:15:22;;;;;;;97.00;35.92;;;2.10;99.90;;;;;;5009149;28;20068;-61
2023/03/02 06:17:48;;;;;;;115.55;36.22;;;2.20;99.90;;;;;;5019695;28;20433;-62
2023/03/02 06:20:14;;;;;;;113.13;39.08;;;2.20;99.90;;;;;;5005473;28;20042;-61
2023/03/02 06:22:46;;;;;;;82.22;33.15;;;2.20;99.90;;;;;;5011568;28;20048;-62
2023/03/02 06:25:22;;;;;;;88.25;36.58;;;2.30;99.90;;;;;;5006588;28;20048;-59
2023/03/02 06:27:52;;;;;;;121.57;40.30;;;2.30;99.90;;;;;;5021242;28;20050;-61
2023/03/02 06:30:21;;;;;;;153.80;41.97;;;2.30;99.90;;;;;;5019720;28;20042;-60
2023/03/02 06:32:46;;;;;;;148.57;40.17;;;2.30;99.90;;;;;;5010224;28;20145;-59
2023/03/02 06:35:13;;;;;;;134.05;42.42;;;2.30;99.90;;;;;;5028859;28;20041;-60
2023/03/02 06:37:39;;;;;;;131.88;40.40;;;2.30;99.90;;;;;;5008963;28;20049;-61
2023/03/02 06:40:09;;;;;;;135.68;42.60;;;2.30;99.90;;;;;;5002967;28;20230;-62
2023/03/02 06:42:36;;;;;;;141.07;42.72;;;2.30;99.90;;;;;;5014838;28;20411;-61
2023/03/02 06:45:04;;;;;;;90.18;35.08;;;2.30;99.90;;;;;;5045360;28;20163;-61
2023/03/02 06:47:30;;;;;;;128.75;43.47;;;2.30;99.90;;;;;;5023669;28;20519;-60
2023/03/02 06:49:55;;;;;;;121.82;41.83;;;2.40;99.90;;;;;;5012925;28;20041;-61
2023/03/02 06:52:21;;;;;;;116.53;41.53;;;2.40;99.90;;;;;;5030376;22;20126;-54
2023/03/02 06:54:47;;;;;;;123.18;44.78;;;2.40;99.90;;;;;;5024409;28;20053;-55
2023/03/02 06:57:13;;;;;;;116.82;41.75;;;2.40;99.90;;;;;;5027410;28;20049;-55
2023/03/02 06:59:38;;;;;;;132.93;44.95;;;2.40;99.90;;;;;;5029033;28;20510;-55
2023/03/02 07:02:04;;;;;;;134.30;44.30;;;2.40;99.90;;;;;;5038771;28;20044;-53
2023/03/02 07:04:30;;;;;;;135.93;45.60;;;2.40;99.90;;;;;;5007304;28;20059;-57
2023/03/02 07:06:56;;;;;;;135.00;45.65;;;2.50;99.90;;;;;;5017740;28;20195;-52
2023/03/02 07:09:22;;;;;;;113.32;43.28;;;2.50;99.90;;;;;;5034580;28;20557;-55
2023/03/02 07:11:47;;;;;;;131.18;45.33;;;2.50;99.90;;;;;;5026112;28;20046;-54
2023/03/02 07:14:15;;;;;;;115.45;42.53;;;2.50;99.90;;;;;;5026350;28;20046;-52
2023/03/02 07:16:40;;;;;;;127.88;40.67;;;2.50;99.90;;;;;;5039416;28;20053;-54
2023/03/02 07:19:11;;;;;;;128.77;41.78;;;2.50;99.90;;;;;;5035766;28;20053;-52
2023/03/02 07:21:36;;;;;;;140.57;44.47;;;2.50;99.90;;;;;;5037653;28;20106;-52
2023/03/02 07:24:02;;;;;;;109.25;38.10;;;2.50;99.90;;;;;;5040165;28;20049;-54
2023/03/02 07:26:28;;;;;;;138.80;43.55;;;2.50;99.90;;;;;;5039709;28;20500;-55
2023/03/02 07:28:53;;;;;;;147.82;45.08;;;2.40;99.90;;;;;;5044746;28;20116;-54
2023/03/02 07:31:19;;;;;;;114.00;38.72;;;2.40;99.90;;;;;;5040061;28;20388;-53
2023/03/02 07:33:45;;;;;;;129.32;41.83;;;2.40;99.90;;;;;;5032358;28;20507;-56
2023/03/02 07:36:11;;;;;;;128.40;42.00;;;2.50;99.90;;;;;;5041414;28;20522;-52
2023/03/02 07:38:37;;;;;;;127.03;42.42;;;2.50;99.90;;;;;;5040308;28;20127;-54
2023/03/02 07:41:07;;;;;;;146.80;42.97;;;2.50;99.90;;;;;;5043511;28;20526;-56
2023/03/02 07:43:35;;;;;;;128.48;40.05;;;2.50;99.90;;;;;;5025918;28;20606;-53
2023/03/02 07:46:03;;;;;;;145.27;44.63;;;2.60;99.90;;;;;;5029780;28;20175;-56
2023/03/02 07:48:29;;;;;;;99.30;37.63;;;2.50;99.90;;;;;;5047995;28;20041;-54
2023/03/02 07:51:00;;;;;;;139.20;42.90;;;2.60;99.90;;;;;;5013063;28;20037;-55
2023/03/02 07:53:26;;;;;;;116.63;40.63;;;2.60;99.90;;;;;;5018168;28;20038;-54
2023/03/02 07:55:52;;;;;;;134.70;42.70;;;2.60;99.90;;;;;;5042283;28;20391;-54
2023/03/02 07:58:18;;;;;;;119.07;41.00;;;2.60;99.90;;;;;;5041941;28;20037;-55
2023/03/02 08:00:44;;;;;;;90.63;34.80;;;2.50;99.90;;;;;;5020592;28;20433;-57
2023/03/02 08:03:09;;;;;;;97.75;36.80;;;2.60;99.90;;;;;;5042154;28;20075;-52
2023/03/02 08:05:38;;;;;;;91.50;36.95;;;2.60;99.90;;;;;;5037591;28;20220;-56
2023/03/02 08:08:03;;;;;;;137.07;43.72;;;2.70;99.90;;;;;;5038309;28;20047;-56
2023/03/02 08:10:29;;;;;;;102.60;38.58;;;2.70;99.90;;;;;;5039552;28;20059;-53
2023/03/02 08:12:55;;;;;;;107.28;38.35;;;2.70;99.90;;;;;;5025144;28;20091;-55
2023/03/02 08:15:20;;;;;;;135.15;43.60;;;2.70;99.90;;;;;;5042907;28;20089;-56
2023/03/02 08:17:46;;;;;;;107.80;38.42;;;2.70;99.90;;;;;;5008248;28;20459;-52
2023/03/02 08:20:12;;;;;;;97.20;37.40;;;2.70;99.90;;;;;;5042368;28;20053;-55
2023/03/02 08:22:38;;;;;;;96.88;37.85;;;2.80;99.90;;;;;;5023086;28;20048;-56
2023/03/02 08:25:04;;;;;;;140.13;43.17;;;2.90;99.90;;;;;;5021911;28;20068;-56
2023/03/02 08:27:30;;;;;;;108.75;39.35;;;2.90;99.90;;;;;;5036024;28;20041;-57
2023/03/02 08:29:55;;;;;;;97.43;38.40;;;3.00;99.90;;;;;;5042107;28;20545;-52
2023/03/02 08:32:21;;;;;;;86.85;37.42;;;3.00;99.90;;;;;;5035073;28;20041;-56
2023/03/02 08:34:50;;;;;;;113.40;39.58;;;3.00;99.90;;;;;;5038674;28;20064;-53
2023/03/02 08:37:17;;;;;;;107.15;37.55;;;3.10;99.90;;;;;;5051915;28;20037;-53
2023/03/02 08:39:42;;;;;;;100.03;35.50;;;3.10;99.90;;;;;;5038715;28;20119;-52
2023/03/02 08:42:11;;;;;;;116.45;38.72;;;3.10;99.90;;;;;;5033832;28;20045;-53
2023/03/02 08:44:37;;;;;;;120.38;39.97;;;3.10;99.90;;;;;;5040364;28;20500;-55
2023/03/02 08:47:03;;;;;;;131.13;40.05;;;3.10;99.90;;;;;;5060102;28;20052;-56
2023/03/02 08:49:31;;;;;;;124.25;40.67;;;3.10;99.90;;;;;;5020055;28;20238;-56
2023/03/02 08:51:58;;;;;;;98.93;38.13;;;3.00;99.90;;;;;;5020192;28;20068;-55
2023/03/02 08:54:24;;;;;;;84.38;35.80;;;3.10;99.90;;;;;;5041947;28;20041;-52
2023/03/02 08:56:50;;;;;;;84.03;35.50;;;3.10;99.90;;;;;;5020522;28;20041;-52
2023/03/02 08:59:16;;;;;;;85.95;35.08;;;3.20;99.90;;;;;;5037706;28;20290;-55
2023/03/02 09:01:42;;;;;;;76.30;31.67;;;3.20;99.90;;;;;;5037333;28;20091;-57
2023/03/02 09:04:09;;;;;;;80.72;31.35;;;3.20;99.90;;;;;;5041788;28;20049;-54
2023/03/02 09:06:37;;;;;;;58.05;29.40;;;3.20;99.90;;;;;;5019085;28;20104;-53
2023/03/02 09:09:04;;;;;;;70.65;30.00;;;3.10;99.90;;;;;;5048123;28;20048;-56
2023/03/02 09:11:29;;;;;;;84.57;32.50;;;3.10;99.90;;;;;;5030194;28;20192;-54
2023/03/02 09:13:55;;;;;;;79.03;32.10;;;3.10;99.90;;;;;;5038350;28;20102;-56
2023/03/02 09:16:24;;;;;;;79.53;32.00;;;3.20;99.90;;;;;;5022172;28;20056;-56
2023/03/02 09:18:50;;;;;;;71.03;29.75;;;3.10;99.90;;;;;;5037396;28;20049;-56
2023/03/02 09:21:16;;;;;;;75.30;32.08;;;3.30;99.90;;;;;;5043681;28;20053;-56
2023/03/02 09:23:45;;;;;;;79.20;32.38;;;3.40;99.90;;;;;;5042722;28;20478;-53
2023/03/02 09:26:11;;;;;;;71.88;29.83;;;3.40;99.90;;;;;;5008075;28;20033;-55
2023/03/02 09:28:37;;;;;;;73.65;30.48;;;3.40;99.90;;;;;;5035988;28;20204;-57
2023/03/02 09:31:05;;;;;;;87.28;34.75;;;3.40;99.90;;;;;;5041103;28;20119;-55
2023/03/02 09:33:31;;;;;;;82.28;35.03;;;3.50;99.90;;;;;;5042238;28;20657;-54
2023/03/02 09:36:00;;;;;;;103.78;36.28;;;3.30;99.90;;;;;;5044254;28;20045;-55
2023/03/02 09:38:26;;;;;;;81.10;33.60;;;3.50;99.90;;;;;;5044909;28;20045;-54
2023/03/02 09:40:57;;;;;;;107.53;37.60;;;3.50;99.90;;;;;;5044250;28;20663;-55
2023/03/02 09:43:58;;;;;;;74.13;31.80;;;3.60;99.90;;;;;;5041878;28;20044;-54
2023/03/02 09:47:04;;;;;;;87.05;35.63;;;3.50;99.90;;;;;;5006564;28;20062;-56
2023/03/02 09:49:44;;;;;;;76.03;33.78;;;3.70;99.90;;;;;;4996779;28;20412;-54
2023/03/02 09:52:45;;;;;;;73.63;33.53;;;3.80;99.90;;;;;;5034400;28;20572;-57
2023/03/02 09:55:13;;;;;;;79.47;33.33;;;3.90;99.90;;;;;;5041596;28;20057;-56
2023/03/02 09:57:39;;;;;;;60.00;29.20;;;4.00;99.90;;;;;;5044758;28;20078;-55
2023/03/02 10:00:14;;;;;;;82.80;33.97;;;4.00;99.90;;;;;;5035532;28;20073;-57
2023/03/02 10:02:49;;;;;;;70.55;32.80;;;4.20;99.90;;;;;;5032910;28;20235;-56
2023/03/02 10:05:33;;;;;;;72.10;32.30;;;4.30;99.90;;;;;;5036573;28;20480;-56
2023/03/02 10:07:59;;;;;;;71.35;32.67;;;4.40;99.90;;;;;;5035126;28;20488;-55
2023/03/02 10:10:44;;;;;;;67.75;28.52;;;4.60;99.90;;;;;;5040814;28;20064;-55
2023/03/02 10:13:22;;;;;;;65.70;30.95;;;4.90;99.90;;;;;;5040075;28;20045;-55
2023/03/02 10:15:58;;;;;;;67.78;30.88;;;4.90;99.90;;;;;;5042093;28;20069;-56
2023/03/02 10:18:48;;;;;;;64.90;31.02;;;4.90;99.90;;;;;;5028966;28;20080;-56
2023/03/02 10:21:38;;;;;;;54.03;26.25;;;4.90;99.90;;;;;;5044407;28;20037;-56
2023/03/02 10:24:42;;;;;;;50.75;24.67;;;4.80;99.90;;;;;;5038094;28;20033;-56
2023/03/02 10:27:39;;;;;;;49.92;24.55;;;4.80;99.90;;;;;;5026441;28;20051;-56
2023/03/02 10:30:14;;;;;;;57.33;26.90;;;4.80;99.90;;;;;;5040151;28;20396;-56
2023/03/02 10:32:50;;;;;;;51.10;24.52;;;4.80;99.90;;;;;;5036096;28;20530;-56
2023/03/02 10:35:19;;;;;;;49.80;23.85;;;4.90;99.90;;;;;;5041214;28;20055;-52
2023/03/02 10:37:46;;;;;;;49.35;24.45;;;4.90;99.90;;;;;;5051503;28;20053;-53
2023/03/02 10:40:35;;;;;;;56.83;26.50;;;5.00;99.90;;;;;;5041324;28;20511;-55
2023/03/02 10:43:03;;;;;;;43.45;21.05;;;5.20;99.90;;;;;;5036012;28;20153;-55
2023/03/02 10:45:31;;;;;;;40.70;20.88;;;5.40;99.90;;;;;;5024125;28;20041;-55
2023/03/02 10:48:04;;;;;;;42.08;21.15;;;5.50;99.90;;;;;;5029386;28;20179;-55
2023/03/02 10:50:30;;;;;;;38.15;19.90;;;5.70;99.90;;;;;;5023475;28;20037;-54
2023/03/02 10:52:56;;;;;;;41.45;21.15;;;5.90;99.90;;;;;;5022150;28;20041;-55
2023/03/02 10:55:22;;;;;;;40.63;20.70;;;6.20;99.90;;;;;;5024534;28;21441;-55
2023/03/02 10:58:24;;;;;;;42.65;20.63;;;6.40;99.90;;;;;;5020615;28;20037;-57
2023/03/02 11:01:16;;;;;;;45.58;21.65;;;6.50;99.90;;;;;;5028408;28;20120;-55
2023/03/02 11:03:44;;;;;;;43.75;21.75;;;6.70;99.90;;;;;;5037004;28;20682;-55
2023/03/02 11:06:21;;;;;;;44.58;21.60;;;6.90;99.90;;;;;;5026425;28;20056;-57
2023/03/02 11:08:58;;;;;;;41.25;20.83;;;7.20;99.90;;;;;;5029432;28;20235;-54
2023/03/02 11:11:24;;;;;;;41.72;21.77;;;7.20;99.90;;;;;;5038303;28;20154;-56
2023/03/02 11:13:50;;;;;;;46.97;22.55;;;7.40;99.90;;;;;;5030615;28;20577;-56
2023/03/02 11:16:16;;;;;;;48.35;23.88;;;7.60;99.90;;;;;;5039806;28;20045;-56
2023/03/02 11:18:58;;;;;;;47.40;23.55;;;7.70;99.90;;;;;;5032859;28;20127;-56
2023/03/02 11:21:42;;;;;;;42.88;21.30;;;7.70;99.90;;;;;;5039056;28;20032;-57
2023/03/02 11:24:32;;;;;;;38.42;19.88;;;7.90;99.90;;;;;;5017431;22;20400;-57
2023/03/02 11:27:09;;;;;;;36.65;18.80;;;8.10;99.90;;;;;;5020387;28;20540;-59
2023/03/02 11:29:56;;;;;;;39.13;19.92;;;8.00;99.90;;;;;;5011741;28;20337;-59
2023/03/02 11:32:44;;;;;;;33.83;18.13;;;8.10;99.90;;;;;;5020303;28;20042;-57
2023/03/02 11:35:19;;;;;;;32.88;17.88;;;8.20;99.90;;;;;;5018484;28;20048;-58
2023/03/02 11:37:50;;;;;;;39.97;19.42;;;8.30;99.90;;;;;;4991331;28;21798;-56
2023/03/02 11:40:25;;;;;;;39.72;19.88;;;8.30;99.90;;;;;;5011885;28;20100;-58
2023/03/02 11:42:54;;;;;;;37.60;19.58;;;8.40;99.90;;;;;;5019356;28;20103;-56
2023/03/02 11:45:22;;;;;;;37.83;19.67;;;8.60;99.90;;;;;;5025212;28;20110;-56
2023/03/02 11:48:18;;;;;;;38.38;19.52;;;8.60;99.90;;;;;;5018422;28;20044;-56
2023/03/02 11:51:08;;;;;;;31.83;17.80;;;8.70;99.90;;;;;;4966676;28;20077;-59
2023/03/02 11:53:44;;;;;;;35.90;19.65;;;8.80;99.90;;;;;;4992633;28;20049;-59
2023/03/02 11:56:10;;;;;;;32.38;17.98;;;9.00;99.90;;;;;;5020794;28;20087;-55
2023/03/02 11:58:37;;;;;;;34.47;18.98;;;9.10;99.90;;;;;;5003946;28;20042;-55
2023/03/02 12:01:06;;;;;;;32.42;18.08;;;9.30;99.90;;;;;;5012270;28;20104;-56
2023/03/02 12:03:31;;;;;;;35.53;17.85;;;9.50;99.90;;;;;;5011456;28;20401;-59
2023/03/02 12:06:28;;;;;;;33.97;17.40;;;9.60;99.90;;;;;;5012291;28;20033;-56
2023/03/02 12:09:29;;;;;;;31.73;16.90;;;9.70;99.90;;;;;;4991912;28;20111;-58
2023/03/02 12:12:14;;;;;;;39.88;21.52;;;9.70;99.90;;;;;;5018860;28;20046;-58
2023/03/02 12:14:42;;;;;;;38.53;22.20;;;9.70;99.90;;;;;;5019659;28;20056;-57
2023/03/02 12:17:32;;;;;;;38.83;22.73;;;9.70;99.90;;;;;;5019184;28;20036;-58
2023/03/02 12:20:21;;;;;;;32.67;19.48;;;9.90;99.90;;;;;;5023492;28;20045;-57
2023/03/02 12:22:46;;;;;;;27.60;16.63;;;10.20;99.90;;;;;;5000951;28;20191;-59
2023/03/02 12:25:18;;;;;;;27.30;16.23;;;10.10;99.90;;;;;;5017656;28;20116;-57
2023/03/02 12:27:46;;;;;;;25.13;15.50;;;10.00;99.90;;;;;;5021010;28;20045;-57
2023/03/02 12:30:15;;;;;;;27.73;17.10;;;10.10;99.90;;;;;;5010063;28;20042;-56
2023/03/02 12:32:57;;;;;;;24.13;14.88;;;10.20;99.90;;;;;;5005337;28;20489;-57
2023/03/02 12:35:30;;;;;;;26.88;16.05;;;10.30;99.90;;;;;;4997518;28;20056;-57
2023/03/02 12:37:59;;;;;;;27.13;16.67;;;10.20;99.90;;;;;;5011710;28;20517;-56
2023/03/02 12:41:11;;;;;;;26.42;15.45;;;10.10;99.90;;;;;;5000991;28;20088;-56
2023/03/02 12:43:42;;;;;;;21.52;13.85;;;10.30;99.90;;;;;;5036664;28;20038;-57
2023/03/02 12:46:29;;;;;;;22.67;14.30;;;10.40;99.90;;;;;;5008017;28;21079;-57
2023/03/02 12:48:59;;;;;;;23.30;14.82;;;10.30;99.90;;;;;;5008149;28;20040;-57